Gyor, Hungary

12:35 AM CEST on August 31, 2016 (GMT +0200)
Kálmán Imre út | | Change Station

Elev 0 ft 47.72 °N, 17.74 °E | Updated 3 minutes ago

Clear
Clear
65.5 °F
Feels Like 65.5 °F
N
1.2
Wind Variable Wind from NNE
Gusts 2.5 mph

Today
High -- | Low -- °F
--% Chance of Precip.
Yesterday
High -- | Low -- °F
Precip. -- in
Pressure 30.24 in
Visibility -9999.0 miles
Clouds
Dew Point 51 °F
Humidity 60%
Rainfall 0.00 in
Snow Depth Not available.
6:06 AM 7:31 PM
Waning Crescent, 2% visible
METAR LZIB 302230Z 36007KT CAVOK 17/09 Q1024
Pressure 30.24 in
Visibility -9999.0 miles
Clouds
Dew Point 51 °F
Humidity 60%
Rainfall 0.00 in
Snow Depth Not available.
6:06 AM 7:31 PM
Waning Crescent, 2% visible
METAR LZIB 302230Z 36007KT CAVOK 17/09 Q1024

10-Day Weather Forecast

×

Almanac

Astronomy

Aug. 31, 2016 Rise Set
Actual Time
Civil Twilight
Nautical Twilight
Astronomical Twilight
Moon
Length of Visible Light
Length of Day
Tomorrow will be .
, % of the Moon is Illuminated

Today's Extremes

Country Highs Country Lows

Community

WunderPhotos

Upload Photos

1,935,914 photos uploaded!

WunderBlog® & News

Nearby

Air Quality

  Air Quality AQ Index Pollutant
Not available.

Snow Depth

Station Depth Elevation

Earthquake Activity

City Distance Mag. Time & Date
Minimum magnitude displayed is 2.5.

Coastal Water Temperatures

Place Temperature

Stations

Nearby Weather Stations

Station Location Temp. Windchill Dew Point Humidity Wind Precip. Elev Updated Type